sensor_id;sensor_type;location;lat;lon;timestamp;pressure;altitude;pressure_sealevel;temperature;humidity
27864;BME280;15980;51.092;13.916;2023-01-30T00:07:15;98713.94;;;-0.93;73.71
27864;BME280;15980;51.092;13.916;2023-01-30T00:17:15;98718.03;;;-0.86;72.89
27864;BME280;15980;51.092;13.916;2023-01-30T00:27:16;98711.59;;;-0.80;73.37
27864;BME280;15980;51.092;13.916;2023-01-30T00:37:16;98686.53;;;-0.80;72.23
27864;BME280;15980;51.092;13.916;2023-01-30T00:47:17;98675.22;;;-0.77;71.77
27864;BME280;15980;51.092;13.916;2023-01-30T00:57:17;98626.19;;;-0.69;71.74
27864;BME280;15980;51.092;13.916;2023-01-30T01:07:17;98641.81;;;-0.66;72.34
27864;BME280;15980;51.092;13.916;2023-01-30T01:17:17;98614.59;;;-0.59;72.73
27864;BME280;15980;51.092;13.916;2023-01-30T01:27:18;98607.31;;;-0.54;73.31
27864;BME280;15980;51.092;13.916;2023-01-30T01:37:18;98545.88;;;-0.52;74.37
27864;BME280;15980;51.092;13.916;2023-01-30T01:47:18;98527.56;;;-0.40;74.88
27864;BME280;15980;51.092;13.916;2023-01-30T01:57:44;98511.09;;;-0.33;75.89
27864;BME280;15980;51.092;13.916;2023-01-30T02:07:49;98470.63;;;-0.28;75.70
27864;BME280;15980;51.092;13.916;2023-01-30T02:17:51;98427.75;;;-0.24;77.28
27864;BME280;15980;51.092;13.916;2023-01-30T02:28:03;98449.56;;;-0.21;77.41
27864;BME280;15980;51.092;13.916;2023-01-30T02:48:36;98451.63;;;-0.03;78.76
27864;BME280;15980;51.092;13.916;2023-01-30T02:58:45;98422.47;;;0.10;79.78
27864;BME280;15980;51.092;13.916;2023-01-30T03:09:13;98366.22;;;0.27;79.78
27864;BME280;15980;51.092;13.916;2023-01-30T03:19:18;98352.34;;;0.44;80.24
27864;BME280;15980;51.092;13.916;2023-01-30T03:29:18;98322.28;;;0.55;80.72
27864;BME280;15980;51.092;13.916;2023-01-30T03:39:18;98310.09;;;0.58;80.28
27864;BME280;15980;51.092;13.916;2023-01-30T03:49:19;98273.19;;;0.53;80.89
27864;BME280;15980;51.092;13.916;2023-01-30T03:59:19;98271.91;;;0.70;80.90
27864;BME280;15980;51.092;13.916;2023-01-30T04:09:19;98284.22;;;0.81;80.66
27864;BME280;15980;51.092;13.916;2023-01-30T04:19:20;98254.34;;;0.96;80.32
27864;BME280;15980;51.092;13.916;2023-01-30T04:29:20;98239.72;;;1.21;80.23
27864;BME280;15980;51.092;13.916;2023-01-30T04:39:20;98232.19;;;1.18;79.01
27864;BME280;15980;51.092;13.916;2023-01-30T04:49:21;98212.84;;;1.30;79.34
27864;BME280;15980;51.092;13.916;2023-01-30T04:59:21;98178.00;;;1.47;79.60
27864;BME280;15980;51.092;13.916;2023-01-30T05:09:21;98151.41;;;1.54;79.72
27864;BME280;15980;51.092;13.916;2023-01-30T05:19:22;98120.97;;;1.62;79.69
27864;BME280;15980;51.092;13.916;2023-01-30T05:29:22;98092.09;;;1.76;79.25
27864;BME280;15980;51.092;13.916;2023-01-30T05:39:22;98075.66;;;1.86;79.66
27864;BME280;15980;51.092;13.916;2023-01-30T05:49:22;98073.22;;;1.71;79.58
27864;BME280;15980;51.092;13.916;2023-01-30T05:59:23;98058.44;;;1.96;80.33
27864;BME280;15980;51.092;13.916;2023-01-30T06:09:23;98057.03;;;1.99;81.06
27864;BME280;15980;51.092;13.916;2023-01-30T06:19:24;98047.72;;;1.91;81.63
27864;BME280;15980;51.092;13.916;2023-01-30T06:29:24;98034.38;;;2.08;81.78
27864;BME280;15980;51.092;13.916;2023-01-30T06:39:24;98059.94;;;2.16;81.25
27864;BME280;15980;51.092;13.916;2023-01-30T06:49:24;98053.34;;;2.08;82.60
27864;BME280;15980;51.092;13.916;2023-01-30T06:59:25;98051.31;;;1.86;86.02
27864;BME280;15980;51.092;13.916;2023-01-30T07:09:25;98042.97;;;1.69;89.33
27864;BME280;15980;51.092;13.916;2023-01-30T07:19:25;98042.34;;;1.58;92.19
27864;BME280;15980;51.092;13.916;2023-01-30T07:29:26;98015.63;;;1.57;95.08
27864;BME280;15980;51.092;13.916;2023-01-30T07:39:26;98012.84;;;1.76;94.55
27864;BME280;15980;51.092;13.916;2023-01-30T07:49:26;98013.16;;;1.88;93.63
27864;BME280;15980;51.092;13.916;2023-01-30T07:59:26;98010.13;;;2.03;92.43
27864;BME280;15980;51.092;13.916;2023-01-30T08:09:27;98017.06;;;2.23;91.21
27864;BME280;15980;51.092;13.916;2023-01-30T08:19:27;97999.22;;;2.22;91.05
27864;BME280;15980;51.092;13.916;2023-01-30T08:29:27;97998.72;;;2.06;91.97
27864;BME280;15980;51.092;13.916;2023-01-30T08:39:28;97998.91;;;2.10;94.03
27864;BME280;15980;51.092;13.916;2023-01-30T08:49:28;97986.38;;;2.14;93.20
27864;BME280;15980;51.092;13.916;2023-01-30T08:59:28;97986.88;;;2.30;93.19
27864;BME280;15980;51.092;13.916;2023-01-30T09:09:29;97978.94;;;2.33;91.99
27864;BME280;15980;51.092;13.916;2023-01-30T09:19:29;97983.78;;;2.59;90.35
27864;BME280;15980;51.092;13.916;2023-01-30T09:29:29;97990.91;;;2.68;90.30
27864;BME280;15980;51.092;13.916;2023-01-30T09:39:30;97985.50;;;2.91;88.57
27864;BME280;15980;51.092;13.916;2023-01-30T10:09:58;97943.03;;;3.31;86.30
27864;BME280;15980;51.092;13.916;2023-01-30T10:30:35;97952.31;;;3.69;82.98
27864;BME280;15980;51.092;13.916;2023-01-30T10:40:42;97947.53;;;3.75;81.94
27864;BME280;15980;51.092;13.916;2023-01-30T10:50:56;97939.03;;;3.59;82.22
27864;BME280;15980;51.092;13.916;2023-01-30T11:01:06;97949.03;;;3.50;81.03
27864;BME280;15980;51.092;13.916;2023-01-30T11:11:30;97969.19;;;3.35;82.95
27864;BME280;15980;51.092;13.916;2023-01-30T11:21:32;97950.94;;;3.19;86.77
27864;BME280;15980;51.092;13.916;2023-01-30T11:31:33;97919.47;;;3.09;86.37
27864;BME280;15980;51.092;13.916;2023-01-30T11:41:33;97948.75;;;3.29;84.62
27864;BME280;15980;51.092;13.916;2023-01-30T11:51:34;97923.03;;;3.18;85.65
27864;BME280;15980;51.092;13.916;2023-01-30T12:01:36;97916.22;;;3.29;84.76
27864;BME280;15980;51.092;13.916;2023-01-30T12:21:46;97868.72;;;3.32;84.34
27864;BME280;15980;51.092;13.916;2023-01-30T12:31:58;97861.13;;;3.51;84.02
27864;BME280;15980;51.092;13.916;2023-01-30T13:03:42;97841.56;;;3.89;83.07
27864;BME280;15980;51.092;13.916;2023-01-30T13:13:51;97843.31;;;3.85;82.79
27864;BME280;15980;51.092;13.916;2023-01-30T13:34:16;97835.22;;;3.93;82.22
27864;BME280;15980;51.092;13.916;2023-01-30T13:44:22;97833.75;;;3.87;81.63
27864;BME280;15980;51.092;13.916;2023-01-30T13:54:48;97834.91;;;4.03;80.61
27864;BME280;15980;51.092;13.916;2023-01-30T14:04:57;97870.69;;;4.23;80.31
27864;BME280;15980;51.092;13.916;2023-01-30T14:15:02;97848.47;;;3.95;79.85
27864;BME280;15980;51.092;13.916;2023-01-30T14:35:26;97840.47;;;3.90;80.33
27864;BME280;15980;51.092;13.916;2023-01-30T14:45:54;97844.16;;;3.94;80.40
27864;BME280;15980;51.092;13.916;2023-01-30T14:56:00;97859.13;;;3.74;81.07
27864;BME280;15980;51.092;13.916;2023-01-30T15:06:02;97850.19;;;3.73;81.21
27864;BME280;15980;51.092;13.916;2023-01-30T15:37:28;97874.63;;;3.34;85.77
27864;BME280;15980;51.092;13.916;2023-01-30T15:57:53;97926.41;;;3.01;87.56
27864;BME280;15980;51.092;13.916;2023-01-30T16:07:57;97945.38;;;3.01;90.37
27864;BME280;15980;51.092;13.916;2023-01-30T16:28:09;97947.63;;;2.77;92.32
27864;BME280;15980;51.092;13.916;2023-01-30T16:48:35;97974.06;;;2.58;93.84
27864;BME280;15980;51.092;13.916;2023-01-30T16:58:37;97976.56;;;2.90;91.94
27864;BME280;15980;51.092;13.916;2023-01-30T17:08:49;97971.59;;;3.06;91.04
27864;BME280;15980;51.092;13.916;2023-01-30T17:18:51;97991.75;;;3.00;91.78
27864;BME280;15980;51.092;13.916;2023-01-30T17:28:52;97996.66;;;3.11;92.11
27864;BME280;15980;51.092;13.916;2023-01-30T17:38:52;97995.66;;;2.85;93.97
27864;BME280;15980;51.092;13.916;2023-01-30T17:48:53;98020.03;;;2.85;95.48
27864;BME280;15980;51.092;13.916;2023-01-30T17:58:53;98037.13;;;2.72;97.82
27864;BME280;15980;51.092;13.916;2023-01-30T18:08:54;98042.25;;;2.60;98.94
27864;BME280;15980;51.092;13.916;2023-01-30T18:18:54;98064.53;;;2.70;98.05
27864;BME280;15980;51.092;13.916;2023-01-30T18:28:55;98087.66;;;2.90;97.12
27864;BME280;15980;51.092;13.916;2023-01-30T18:38:55;98099.38;;;2.99;95.30
27864;BME280;15980;51.092;13.916;2023-01-30T18:48:56;98104.16;;;3.16;93.06
27864;BME280;15980;51.092;13.916;2023-01-30T18:58:57;98151.41;;;3.24;92.24
27864;BME280;15980;51.092;13.916;2023-01-30T19:08:58;98174.72;;;3.25;90.81
27864;BME280;15980;51.092;13.916;2023-01-30T19:18:59;98195.44;;;3.43;89.31
27864;BME280;15980;51.092;13.916;2023-01-30T19:28:59;98207.88;;;3.44;88.32
27864;BME280;15980;51.092;13.916;2023-01-30T19:39:00;98247.69;;;3.49;87.66
27864;BME280;15980;51.092;13.916;2023-01-30T19:49:01;98264.91;;;3.66;86.29
27864;BME280;15980;51.092;13.916;2023-01-30T19:59:01;98278.47;;;3.66;84.88
27864;BME280;15980;51.092;13.916;2023-01-30T20:09:06;98312.41;;;3.91;83.09
27864;BME280;15980;51.092;13.916;2023-01-30T20:19:15;98311.41;;;3.73;83.10
27864;BME280;15980;51.092;13.916;2023-01-30T20:29:15;98308.59;;;3.78;83.02
27864;BME280;15980;51.092;13.916;2023-01-30T20:39:16;98323.06;;;3.74;84.08
27864;BME280;15980;51.092;13.916;2023-01-30T20:49:18;98325.88;;;3.83;83.68
27864;BME280;15980;51.092;13.916;2023-01-30T20:59:21;98336.72;;;3.83;83.46
27864;BME280;15980;51.092;13.916;2023-01-30T21:09:22;98359.06;;;3.66;84.49
27864;BME280;15980;51.092;13.916;2023-01-30T21:19:22;98371.31;;;3.63;84.24
27864;BME280;15980;51.092;13.916;2023-01-30T21:29:24;98373.31;;;3.44;84.64
27864;BME280;15980;51.092;13.916;2023-01-30T21:39:25;98403.06;;;3.35;84.59
27864;BME280;15980;51.092;13.916;2023-01-30T21:49:25;98420.75;;;3.60;84.20
27864;BME280;15980;51.092;13.916;2023-01-30T21:59:26;98435.44;;;3.59;86.27
27864;BME280;15980;51.092;13.916;2023-01-30T22:09:26;98434.59;;;2.99;94.46
27864;BME280;15980;51.092;13.916;2023-01-30T22:19:26;98448.97;;;2.99;95.06
27864;BME280;15980;51.092;13.916;2023-01-30T22:29:27;98451.03;;;3.07;93.04
27864;BME280;15980;51.092;13.916;2023-01-30T22:39:27;98490.06;;;2.88;94.50
27864;BME280;15980;51.092;13.916;2023-01-30T22:49:27;98501.06;;;2.77;95.98
27864;BME280;15980;51.092;13.916;2023-01-30T22:59:28;98524.66;;;2.77;93.86
27864;BME280;15980;51.092;13.916;2023-01-30T23:09:28;98518.06;;;2.64;92.02
27864;BME280;15980;51.092;13.916;2023-01-30T23:19:28;98521.81;;;2.68;90.93
27864;BME280;15980;51.092;13.916;2023-01-30T23:29:29;98536.59;;;2.76;90.41
27864;BME280;15980;51.092;13.916;2023-01-30T23:39:29;98540.75;;;2.87;89.37
27864;BME280;15980;51.092;13.916;2023-01-30T23:49:29;98532.03;;;2.90;88.29
27864;BME280;15980;51.092;13.916;2023-01-30T23:59:30;98527.38;;;2.77;88.67
